Time;durP1;ratioP1;P1;durP2;ratioP2;P2;SDS_P1;SDS_P2;PMS_P1;PMS_P2;Temp;Humidity;BMP_temperature;BMP_pressure;BME280_temperature;BME280_humidity;BME280_pressure;Samples;Min_cycle;Max_cycle;Signal;HPM_P1;HPM_P2
2022/09/02 00:02:22;;;;;;;;;;;;;;;20.78;36.58;99985.84;4361248;32;33778;-88
2022/09/02 00:04:50;;;;;;;;;;;;;;;20.90;34.92;99990.19;4346656;33;32159;-89
2022/09/02 00:07:17;;;;;;;;;;;;;;;20.47;35.95;99988.38;4360784;32;33967;-88
2022/09/02 00:09:44;;;;;;;;;;;;;;;20.44;36.05;99985.91;4348011;32;33563;-88
2022/09/02 00:12:12;;;;;;;;;;;;;;;20.78;35.33;99980.47;4348793;32;32475;-88
2022/09/02 00:14:40;;;;;;;;;;;;;;;20.53;35.62;99976.28;4349090;32;32541;-88
2022/09/02 00:17:07;;;;;;;;;;;;;;;20.84;35.02;99970.09;4360427;32;32727;-88
2022/09/02 00:19:35;;;;;;;;;;;;;;;20.74;35.08;99969.13;4360608;32;34054;-88
2022/09/02 00:22:02;;;;;;;;;;;;;;;20.87;34.72;99963.59;4335663;32;793684;-88
2022/09/02 00:24:30;;;;;;;;;;;;;;;20.51;36.85;99971.06;4359544;32;32053;-87
2022/09/02 00:26:58;;;;;;;;;;;;;;;20.78;35.02;99969.72;4361484;32;33049;-87
2022/09/02 00:29:25;;;;;;;;;;;;;;;20.73;34.88;99966.59;4348335;32;33817;-87
2022/09/02 00:31:53;;;;;;;;;;;;;;;20.68;35.82;99970.50;4360443;32;34367;-87
2022/09/02 00:34:21;;;;;;;;;;;;;;;20.50;35.04;99972.00;4359916;32;33235;-88
2022/09/02 00:36:49;;;;;;;;;;;;;;;20.61;34.65;99960.41;4372214;32;34955;-89
2022/09/02 00:39:17;;;;;;;;;;;;;;;20.71;35.38;99964.88;4347261;32;34451;-89
2022/09/02 00:41:45;;;;;;;;;;;;;;;20.42;36.82;99969.09;4360725;32;34328;-88
2022/09/02 00:44:14;;;;;;;;;;;;;;;20.76;34.50;99955.59;4360438;32;32043;-88
2022/09/02 00:46:42;;;;;;;;;;;;;;;20.50;35.12;99955.06;4347907;32;33028;-88
2022/09/02 00:49:11;;;;;;;;;;;;;;;20.53;35.18;99962.87;4359909;32;34989;-89
2022/09/02 00:51:48;;;;;;;;;;;;;;;20.88;34.30;99959.94;4359480;32;34184;-89
2022/09/02 00:54:16;;;;;;;;;;;;;;;20.77;33.93;99954.63;4360852;32;32947;-88
2022/09/02 00:56:44;;;;;;;;;;;;;;;20.63;35.48;99956.63;4348085;32;32893;-88
2022/09/02 00:59:17;;;;;;;;;;;;;;;20.79;35.36;99947.28;4360124;32;33723;-88
2022/09/02 01:01:45;;;;;;;;;;;;;;;20.85;33.81;99949.47;4348199;32;33691;-89
2022/09/02 01:04:12;;;;;;;;;;;;;;;20.43;35.88;99949.34;4359876;32;34048;-89
2022/09/02 01:06:40;;;;;;;;;;;;;;;20.92;34.14;99947.97;4359691;32;33721;-89
2022/09/02 01:09:10;;;;;;;;;;;;;;;20.74;35.59;99946.81;4360669;32;34300;-89
2022/09/02 01:11:39;;;;;;;;;;;;;;;20.99;34.64;99946.47;4349541;32;33306;-89
2022/09/02 01:14:08;;;;;;;;;;;;;;;21.11;33.26;99945.41;4361114;32;32161;-89
2022/09/02 01:16:38;;;;;;;;;;;;;;;20.91;33.91;99946.25;4362472;32;33761;-90
2022/09/02 01:19:10;;;;;;;;;;;;;;;21.03;33.35;99947.94;4362882;32;34180;-89
2022/09/02 01:21:43;;;;;;;;;;;;;;;20.33;35.28;99943.88;4349858;32;33307;-89
2022/09/02 01:24:11;;;;;;;;;;;;;;;20.77;34.30;99946.56;4362429;32;32374;-90
2022/09/02 01:26:38;;;;;;;;;;;;;;;20.93;33.31;99946.97;4362294;32;32864;-89
2022/09/02 01:29:06;;;;;;;;;;;;;;;20.34;35.96;99950.09;4362188;32;33869;-90
2022/09/02 01:31:34;;;;;;;;;;;;;;;20.59;34.09;99954.31;4348663;32;33591;-90
2022/09/02 01:34:01;;;;;;;;;;;;;;;20.63;35.13;99948.56;4347826;32;31995;-87
2022/09/02 01:36:29;;;;;;;;;;;;;;;20.83;33.26;99954.09;4359331;32;32988;-88
2022/09/02 01:38:57;;;;;;;;;;;;;;;21.00;33.65;99952.69;4359800;32;33162;-88
2022/09/02 01:41:24;;;;;;;;;;;;;;;20.76;33.08;99947.56;4362029;32;32942;-88
2022/09/02 01:43:53;;;;;;;;;;;;;;;20.88;33.66;99946.50;4349683;32;33010;-89
2022/09/02 01:46:22;;;;;;;;;;;;;;;20.64;33.66;99947.59;4362032;32;33888;-88
2022/09/02 01:48:51;;;;;;;;;;;;;;;20.79;33.45;99949.97;4350155;32;32945;-89
2022/09/02 01:51:19;;;;;;;;;;;;;;;20.56;33.69;99939.34;4361885;32;34865;-88
2022/09/02 01:53:47;;;;;;;;;;;;;;;20.56;33.61;99941.19;4349840;32;32903;-89
2022/09/02 01:56:15;;;;;;;;;;;;;;;20.75;33.62;99937.78;4353391;32;33921;-88
2022/09/02 01:58:43;;;;;;;;;;;;;;;20.50;33.67;99939.81;4362510;32;35036;-88
2022/09/02 02:01:11;;;;;;;;;;;;;;;20.79;33.25;99937.41;4361353;32;33796;-89
2022/09/02 02:03:39;;;;;;;;;;;;;;;20.52;34.27;99937.88;4361150;32;34010;-88
2022/09/02 02:06:10;;;;;;;;;;;;;;;20.39;34.76;99937.16;4349650;32;33312;-88
2022/09/02 02:08:38;;;;;;;;;;;;;;;20.62;33.62;99928.09;4357543;32;33374;-89
2022/09/02 02:11:07;;;;;;;;;;;;;;;20.67;33.18;99931.25;4361982;32;34414;-89
2022/09/02 02:13:36;;;;;;;;;;;;;;;20.70;34.06;99933.69;4348540;32;32501;-88
2022/09/02 02:16:03;;;;;;;;;;;;;;;20.70;33.03;99935.50;4361532;32;33244;-88
2022/09/02 02:18:31;;;;;;;;;;;;;;;20.67;33.31;99936.59;4349763;32;33184;-87
2022/09/02 02:20:58;;;;;;;;;;;;;;;20.56;33.25;99933.13;4360662;32;32475;-87
2022/09/02 02:23:26;;;;;;;;;;;;;;;20.79;33.07;99925.81;4361593;32;33936;-87
2022/09/02 02:25:54;;;;;;;;;;;;;;;20.22;34.08;99941.22;4361609;32;33804;-87
2022/09/02 02:28:22;;;;;;;;;;;;;;;20.56;33.90;99935.81;4361736;32;33962;-87
2022/09/02 02:30:49;;;;;;;;;;;;;;;20.65;34.15;99930.53;4349568;32;33872;-88
2022/09/02 02:33:17;;;;;;;;;;;;;;;20.30;33.75;99930.72;4349285;32;33694;-87
2022/09/02 02:35:44;;;;;;;;;;;;;;;20.47;33.84;99929.38;4360465;32;33982;-86
2022/09/02 02:38:11;;;;;;;;;;;;;;;20.48;33.16;99927.53;4349198;32;33876;-87
2022/09/02 02:40:42;;;;;;;;;;;;;;;20.24;33.92;99935.75;4361279;32;33842;-87
2022/09/02 02:43:09;;;;;;;;;;;;;;;20.18;34.90;99935.28;4373706;32;31854;-87
2022/09/02 02:45:37;;;;;;;;;;;;;;;20.27;35.42;99932.78;4361628;32;34940;-87
2022/09/02 02:48:05;;;;;;;;;;;;;;;20.33;35.35;99929.62;4362254;32;33128;-87
2022/09/02 02:50:33;;;;;;;;;;;;;;;20.51;33.84;99929.94;4362063;32;32911;-87
2022/09/02 02:53:02;;;;;;;;;;;;;;;20.04;35.39;99934.69;4362060;32;33438;-89
2022/09/02 02:55:29;;;;;;;;;;;;;;;20.58;33.74;99932.00;4361912;32;33088;-89
2022/09/02 02:57:57;;;;;;;;;;;;;;;20.64;33.85;99931.47;4347684;32;34684;-89
2022/09/02 03:00:25;;;;;;;;;;;;;;;20.68;33.64;99932.09;4349336;32;35627;-89
2022/09/02 03:02:54;;;;;;;;;;;;;;;20.15;37.03;99930.16;4361381;32;32192;-90
2022/09/02 03:05:23;;;;;;;;;;;;;;;20.50;34.51;99923.72;4360742;32;33759;-90
2022/09/02 03:07:50;;;;;;;;;;;;;;;20.29;35.49;99922.81;4361538;32;34981;-89
2022/09/02 03:10:18;;;;;;;;;;;;;;;20.30;34.08;99927.19;4361803;32;34524;-89
2022/09/02 03:12:46;;;;;;;;;;;;;;;20.06;34.60;99930.88;4348417;32;33676;-89
2022/09/02 03:15:15;;;;;;;;;;;;;;;20.00;36.05;99923.34;4349574;32;32874;-90
2022/09/02 03:17:44;;;;;;;;;;;;;;;20.38;34.17;99922.06;4349456;32;33201;-90
2022/09/02 03:20:14;;;;;;;;;;;;;;;20.43;33.87;99917.16;4348615;32;33299;-90
2022/09/02 03:22:43;;;;;;;;;;;;;;;20.22;35.36;99914.41;4363688;32;31985;-90
2022/09/02 03:25:11;;;;;;;;;;;;;;;20.15;35.36;99927.47;4351787;32;32824;-89
2022/09/02 03:27:40;;;;;;;;;;;;;;;20.33;35.32;99921.59;4351839;32;34297;-89
2022/09/02 03:30:08;;;;;;;;;;;;;;;20.38;35.04;99919.38;4351858;32;33519;-90
2022/09/02 03:32:36;;;;;;;;;;;;;;;19.87;37.08;99925.31;4351980;32;34835;-89
2022/09/02 03:35:06;;;;;;;;;;;;;;;19.73;37.97;99926.41;4351791;32;34636;-90
2022/09/02 03:37:35;;;;;;;;;;;;;;;20.03;35.45;99924.91;4364157;32;33706;-88
2022/09/02 03:40:07;;;;;;;;;;;;;;;19.86;36.30;99923.63;4351737;32;34939;-88
2022/09/02 03:42:34;;;;;;;;;;;;;;;20.01;36.05;99917.00;4363199;32;33066;-88
2022/09/02 03:45:03;;;;;;;;;;;;;;;19.95;36.45;99928.25;4363190;32;33780;-89
2022/09/02 03:47:30;;;;;;;;;;;;;;;19.84;36.65;99930.91;4339333;32;33800;-88
2022/09/02 03:49:58;;;;;;;;;;;;;;;19.68;36.74;99923.25;4368626;32;35033;-88
2022/09/02 03:52:27;;;;;;;;;;;;;;;20.13;35.35;99926.75;4352098;32;33658;-87
2022/09/02 03:54:55;;;;;;;;;;;;;;;19.58;37.23;99924.94;4364001;32;34201;-89
2022/09/02 03:57:24;;;;;;;;;;;;;;;19.88;37.58;99921.66;4350902;32;33281;-88
2022/09/02 03:59:52;;;;;;;;;;;;;;;19.65;38.19;99919.00;4364170;32;33860;-88
2022/09/02 04:02:20;;;;;;;;;;;;;;;19.51;37.69;99923.69;4363383;32;33139;-88
2022/09/02 04:04:48;;;;;;;;;;;;;;;19.58;37.94;99917.75;4350543;32;33534;-88
2022/09/02 04:07:16;;;;;;;;;;;;;;;19.43;39.08;99916.28;4351234;32;33168;-88
2022/09/02 04:09:43;;;;;;;;;;;;;;;19.64;38.40;99919.09;4363623;32;33600;-88
2022/09/02 04:12:13;;;;;;;;;;;;;;;19.58;38.13;99931.13;4363094;32;33200;-89
2022/09/02 04:14:41;;;;;;;;;;;;;;;19.11;39.51;99929.47;4363177;32;33945;-87
2022/09/02 04:17:09;;;;;;;;;;;;;;;19.51;37.00;99927.22;4351569;32;34162;-89
2022/09/02 04:19:38;;;;;;;;;;;;;;;19.61;35.93;99930.94;4363229;32;34509;-89
2022/09/02 04:22:06;;;;;;;;;;;;;;;19.01;39.54;99932.00;4363783;32;33379;-89
2022/09/02 04:24:34;;;;;;;;;;;;;;;19.43;38.42;99927.84;4338982;32;35011;-89
2022/09/02 04:27:02;;;;;;;;;;;;;;;19.34;39.60;99930.38;4350805;32;33291;-89
2022/09/02 04:29:31;;;;;;;;;;;;;;;19.13;40.36;99923.06;4351488;32;34110;-89
2022/09/02 04:31:59;;;;;;;;;;;;;;;19.23;40.64;99935.69;4351301;32;31895;-88
2022/09/02 04:34:27;;;;;;;;;;;;;;;18.72;43.77;99930.72;4361434;32;33892;-90
2022/09/02 04:36:55;;;;;;;;;;;;;;;19.24;40.30;99934.75;4347919;32;33041;-89
2022/09/02 04:39:22;;;;;;;;;;;;;;;18.80;42.19;99933.63;4358982;32;34315;-87
2022/09/02 04:41:52;;;;;;;;;;;;;;;18.99;38.17;99933.97;4332426;32;32655;-89
2022/09/02 04:44:20;;;;;;;;;;;;;;;19.30;37.83;99931.59;4358884;32;33380;-89
2022/09/02 04:46:48;;;;;;;;;;;;;;;19.39;38.18;99942.44;4352008;32;33417;-89
2022/09/02 04:49:17;;;;;;;;;;;;;;;18.86;39.47;99941.22;4371845;32;34242;-89
2022/09/02 04:51:45;;;;;;;;;;;;;;;18.98;39.04;99942.94;4350644;32;33396;-89
2022/09/02 04:54:13;;;;;;;;;;;;;;;19.30;39.07;99942.31;4348203;32;33316;-89
2022/09/02 04:56:41;;;;;;;;;;;;;;;19.21;39.29;99933.16;4358712;32;34371;-90
2022/09/02 04:59:09;;;;;;;;;;;;;;;19.51;38.01;99945.97;4349285;32;32976;-89
2022/09/02 05:01:37;;;;;;;;;;;;;;;18.89;41.30;99947.16;4346797;32;33499;-89
2022/09/02 05:04:08;;;;;;;;;;;;;;;19.79;38.27;99954.53;4347727;32;34507;-89
2022/09/02 05:06:36;;;;;;;;;;;;;;;19.18;40.17;99944.97;4359891;32;33234;-88
2022/09/02 05:09:12;;;;;;;;;;;;;;;19.66;37.85;99949.31;4360125;32;34140;-88
2022/09/02 05:11:40;;;;;;;;;;;;;;;19.41;39.96;99945.84;4360422;32;32142;-88
2022/09/02 05:14:09;;;;;;;;;;;;;;;19.21;37.99;99943.00;4359675;32;33866;-88
2022/09/02 05:16:37;;;;;;;;;;;;;;;19.57;38.94;99952.69;4359724;32;34086;-88
2022/09/02 05:19:06;;;;;;;;;;;;;;;19.68;39.09;99945.53;4348522;32;33624;-88
2022/09/02 05:21:37;;;;;;;;;;;;;;;19.64;40.24;99952.09;4347728;32;32485;-88
2022/09/02 05:24:06;;;;;;;;;;;;;;;19.45;39.09;99947.31;4347152;32;33954;-88
2022/09/02 05:26:34;;;;;;;;;;;;;;;19.64;39.01;99946.75;4360165;32;33558;-87
2022/09/02 05:29:05;;;;;;;;;;;;;;;20.07;37.49;99946.00;4347780;32;34334;-86
2022/09/02 05:31:33;;;;;;;;;;;;;;;20.09;36.78;99946.72;4371930;32;32962;-86
2022/09/02 05:34:01;;;;;;;;;;;;;;;20.20;37.06;99949.38;4359622;32;36820;-88
2022/09/02 05:36:31;;;;;;;;;;;;;;;19.95;37.81;99949.69;4346479;32;33148;-87
2022/09/02 05:38:59;;;;;;;;;;;;;;;20.34;35.71;99942.06;4347813;32;34323;-87
2022/09/02 05:41:28;;;;;;;;;;;;;;;20.51;36.25;99941.56;4358062;32;34157;-87
2022/09/02 05:43:57;;;;;;;;;;;;;;;20.40;35.94;99941.53;4346994;32;33016;-87
2022/09/02 05:46:30;;;;;;;;;;;;;;;20.23;36.91;99948.31;4348171;32;31714;-87
2022/09/02 05:49:05;;;;;;;;;;;;;;;20.57;35.49;99946.41;4358118;32;33469;-87
2022/09/02 05:51:40;;;;;;;;;;;;;;;20.46;37.03;99941.03;4359837;32;32543;-87
2022/09/02 05:54:08;;;;;;;;;;;;;;;20.15;36.42;99943.56;4359908;32;34191;-87
2022/09/02 05:56:37;;;;;;;;;;;;;;;20.07;38.14;99943.31;4348517;32;34087;-87
2022/09/02 05:59:11;;;;;;;;;;;;;;;20.69;36.09;99936.47;4361463;32;35942;-87
2022/09/02 06:01:39;;;;;;;;;;;;;;;20.74;36.21;99946.81;4361996;32;32825;-87
2022/09/02 06:04:07;;;;;;;;;;;;;;;20.44;36.04;99941.16;4347295;32;34441;-88
2022/09/02 06:06:37;;;;;;;;;;;;;;;20.63;35.71;99945.88;4361276;32;34935;-87
2022/09/02 06:09:07;;;;;;;;;;;;;;;20.72;35.66;99944.28;4361351;32;33166;-88
2022/09/02 06:11:39;;;;;;;;;;;;;;;20.94;35.72;99941.50;4361199;32;32276;-87
2022/09/02 06:14:07;;;;;;;;;;;;;;;20.74;36.83;99944.12;4372538;32;32777;-87
2022/09/02 06:16:36;;;;;;;;;;;;;;;21.02;35.83;99945.34;4360526;32;33495;-87
2022/09/02 06:19:04;;;;;;;;;;;;;;;21.02;35.60;99948.88;4373219;32;32799;-87
2022/09/02 06:21:34;;;;;;;;;;;;;;;20.86;37.90;99951.16;4349261;32;32778;-87
2022/09/02 06:24:06;;;;;;;;;;;;;;;21.21;35.57;99953.53;4360295;32;32981;-87
2022/09/02 06:26:34;;;;;;;;;;;;;;;21.25;34.26;99946.06;4373343;32;35069;-87
2022/09/02 06:29:02;;;;;;;;;;;;;;;21.08;35.88;99956.44;4361810;32;33363;-87
2022/09/02 06:31:30;;;;;;;;;;;;;;;21.02;35.62;99951.56;4361501;32;33274;-87
2022/09/02 06:34:03;;;;;;;;;;;;;;;21.35;35.06;99955.06;4374480;32;34080;-88
2022/09/02 06:36:32;;;;;;;;;;;;;;;21.62;34.85;99955.37;4349817;32;35120;-87
2022/09/02 06:39:00;;;;;;;;;;;;;;;21.63;37.07;99950.84;4374541;32;32666;-87
2022/09/02 06:41:29;;;;;;;;;;;;;;;21.26;36.01;99962.03;4349743;32;33029;-88
2022/09/02 06:43:59;;;;;;;;;;;;;;;21.29;33.92;99959.09;4349026;32;33688;-87
2022/09/02 06:46:30;;;;;;;;;;;;;;;21.34;34.93;99953.38;4360021;32;33359;-88
2022/09/02 06:48:59;;;;;;;;;;;;;;;21.20;34.60;99962.56;4360085;32;34039;-87
2022/09/02 06:51:34;;;;;;;;;;;;;;;21.05;34.42;99959.38;4360676;32;33784;-87
2022/09/02 06:54:03;;;;;;;;;;;;;;;21.03;35.99;99969.41;4359987;32;33857;-87
2022/09/02 06:56:32;;;;;;;;;;;;;;;21.07;36.21;99960.06;4360157;32;32983;-87
2022/09/02 06:58:59;;;;;;;;;;;;;;;21.08;36.29;99961.81;4360759;32;32826;-87
2022/09/02 07:01:35;;;;;;;;;;;;;;;21.19;36.36;99959.03;4373909;32;31281;-87
2022/09/02 07:06:51;;;;;;;;;;;;;;;21.02;37.76;99962.31;4372371;32;32607;-87
2022/09/02 07:09:29;;;;;;;;;;;;;;;21.56;35.57;99957.75;4362082;32;34125;-86
2022/09/02 07:11:59;;;;;;;;;;;;;;;21.54;35.50;99957.88;4336270;32;32265;-87
2022/09/02 07:14:40;;;;;;;;;;;;;;;21.30;36.18;99959.97;4361419;32;32292;-85
2022/09/02 07:17:09;;;;;;;;;;;;;;;21.48;35.64;99956.56;4361623;32;33214;-86
2022/09/02 07:19:37;;;;;;;;;;;;;;;21.79;35.69;99950.34;4372456;32;33293;-85
2022/09/02 07:22:05;;;;;;;;;;;;;;;22.07;36.33;99948.75;4346273;32;32692;-85
2022/09/02 07:24:36;;;;;;;;;;;;;;;21.87;34.52;99950.53;4361430;32;33792;-85
2022/09/02 07:27:04;;;;;;;;;;;;;;;21.72;35.12;99950.88;4374519;32;33117;-85
2022/09/02 07:29:32;;;;;;;;;;;;;;;21.73;36.21;99963.34;4361646;32;34638;-83
2022/09/02 07:32:01;;;;;;;;;;;;;;;21.95;35.42;99950.72;4359895;32;32310;-84
2022/09/02 07:34:29;;;;;;;;;;;;;;;22.31;35.81;99956.50;4372633;32;34871;-84
2022/09/02 07:36:57;;;;;;;;;;;;;;;21.99;35.63;99949.44;4373881;32;33581;-84
2022/09/02 07:39:30;;;;;;;;;;;;;;;22.15;34.21;99957.88;4359905;32;33805;-84
2022/09/02 07:41:58;;;;;;;;;;;;;;;21.93;36.09;99956.22;4358811;32;31746;-84
2022/09/02 07:44:26;;;;;;;;;;;;;;;21.67;36.16;99963.87;4361076;32;35232;-84
2022/09/02 07:46:55;;;;;;;;;;;;;;;21.87;35.67;99958.59;4364020;32;34934;-84
2022/09/02 07:49:23;;;;;;;;;;;;;;;21.83;35.59;99952.63;4372365;32;34909;-84
2022/09/02 07:51:50;;;;;;;;;;;;;;;21.68;35.51;99953.97;4348145;32;32608;-84
2022/09/02 07:54:19;;;;;;;;;;;;;;;22.34;35.61;99949.00;4371599;32;33641;-84
2022/09/02 07:56:48;;;;;;;;;;;;;;;22.35;34.22;99952.53;4372183;32;35714;-84
2022/09/02 07:59:16;;;;;;;;;;;;;;;22.31;34.31;99949.25;4373153;32;34335;-84
2022/09/02 08:01:47;;;;;;;;;;;;;;;21.77;35.77;99952.31;4360815;32;33347;-84
2022/09/02 08:04:15;;;;;;;;;;;;;;;21.84;35.45;99954.34;4361795;32;33357;-84
2022/09/02 08:06:42;;;;;;;;;;;;;;;21.78;35.25;99954.03;4360591;32;34854;-84
2022/09/02 08:09:10;;;;;;;;;;;;;;;21.61;35.93;99961.72;4374184;32;33970;-84
2022/09/02 08:11:39;;;;;;;;;;;;;;;21.83;35.62;99957.16;4361384;32;32224;-84
2022/09/02 08:14:07;;;;;;;;;;;;;;;21.73;35.68;99962.47;4351685;32;33825;-84
2022/09/02 08:16:34;;;;;;;;;;;;;;;21.54;35.71;99959.69;4361765;32;34090;-84
2022/09/02 08:19:04;;;;;;;;;;;;;;;21.86;35.66;99957.75;4372071;32;34093;-84
2022/09/02 08:21:31;;;;;;;;;;;;;;;22.29;36.76;99953.09;4349564;32;32240;-84
2022/09/02 08:23:59;;;;;;;;;;;;;;;22.27;35.95;99955.94;4361585;32;34221;-84
2022/09/02 08:26:27;;;;;;;;;;;;;;;22.16;36.26;99953.34;4360080;32;35004;-84
2022/09/02 08:28:54;;;;;;;;;;;;;;;22.16;35.52;99954.19;4349145;32;34185;-84
2022/09/02 08:31:22;;;;;;;;;;;;;;;22.59;36.00;99950.28;4361890;32;32227;-84
2022/09/02 08:33:49;;;;;;;;;;;;;;;22.78;35.05;99946.75;4371711;32;34053;-84
2022/09/02 08:36:17;;;;;;;;;;;;;;;23.06;35.52;99942.41;4353460;32;33468;-84
2022/09/02 08:38:45;;;;;;;;;;;;;;;22.67;36.16;99946.91;4373269;32;34208;-85
2022/09/02 08:41:20;;;;;;;;;;;;;;;23.18;33.50;99935.88;4373153;32;33127;-84
2022/09/02 08:43:47;;;;;;;;;;;;;;;23.03;34.25;99937.31;4349694;32;34084;-85
2022/09/02 08:46:16;;;;;;;;;;;;;;;22.86;35.45;99946.91;4338971;32;32942;-85
2022/09/02 08:48:45;;;;;;;;;;;;;;;22.96;34.13;99933.47;4373292;32;33983;-86
2022/09/02 08:51:17;;;;;;;;;;;;;;;23.23;34.28;99932.75;4360134;32;33806;-85
2022/09/02 08:53:51;;;;;;;;;;;;;;;23.55;35.07;99942.28;4360127;32;34270;-86
2022/09/02 08:56:18;;;;;;;;;;;;;;;23.51;34.38;99936.38;4371460;32;34449;-85
2022/09/02 08:58:51;;;;;;;;;;;;;;;23.50;34.58;99948.16;4360774;32;32775;-85
2022/09/02 09:01:23;;;;;;;;;;;;;;;23.81;32.96;99934.44;4360439;32;33452;-85
2022/09/02 09:03:54;;;;;;;;;;;;;;;23.89;32.67;99932.69;4372473;32;33388;-85
2022/09/02 09:06:29;;;;;;;;;;;;;;;23.96;32.92;99936.47;4372860;32;32987;-85
2022/09/02 09:09:12;;;;;;;;;;;;;;;24.05;33.45;99939.28;4333809;32;32744;-85
2022/09/02 09:12:03;;;;;;;;;;;;;;;23.85;33.89;99930.44;4358213;32;33178;-85
2022/09/02 09:14:46;;;;;;;;;;;;;;;23.95;33.04;99928.53;4366311;32;33284;-85
2022/09/02 09:17:14;;;;;;;;;;;;;;;23.88;32.92;99928.31;4359554;32;34113;-85
2022/09/02 09:19:49;;;;;;;;;;;;;;;23.14;37.98;99930.91;4373546;32;31744;-86
2022/09/02 09:22:21;;;;;;;;;;;;;;;23.80;34.81;99925.50;4349625;32;33336;-86
2022/09/02 09:24:49;;;;;;;;;;;;;;;24.14;35.37;99927.59;4359638;32;32943;-85
2022/09/02 09:27:17;;;;;;;;;;;;;;;24.27;33.33;99928.94;4371441;32;34134;-86
2022/09/02 09:29:45;;;;;;;;;;;;;;;24.55;32.54;99919.97;4347204;32;32658;-86
2022/09/02 09:32:12;;;;;;;;;;;;;;;24.36;32.29;99916.41;4361339;32;32659;-85
2022/09/02 09:34:52;;;;;;;;;;;;;;;24.59;33.36;99916.78;4373098;32;32960;-85
2022/09/02 09:37:27;;;;;;;;;;;;;;;24.89;33.12;99917.41;4366174;32;33027;-85
2022/09/02 09:40:00;;;;;;;;;;;;;;;25.10;31.63;99915.22;4373955;32;31903;-85
2022/09/02 09:42:36;;;;;;;;;;;;;;;24.98;30.91;99906.50;4361593;32;32257;-87
2022/09/02 09:45:18;;;;;;;;;;;;;;;24.84;31.86;99914.34;4361219;32;34196;-86
2022/09/02 09:48:06;;;;;;;;;;;;;;;24.70;30.76;99908.47;4357851;32;33239;-87
2022/09/02 09:50:33;;;;;;;;;;;;;;;24.85;33.43;99903.38;4361220;32;33156;-87
2022/09/02 09:53:20;;;;;;;;;;;;;;;24.89;31.00;99906.59;4362383;32;33076;-87
2022/09/02 09:55:49;;;;;;;;;;;;;;;24.68;31.57;99904.22;4353330;32;34046;-86
2022/09/02 09:58:17;;;;;;;;;;;;;;;24.87;30.66;99895.09;4373295;32;34705;-86
2022/09/02 10:00:44;;;;;;;;;;;;;;;24.75;32.36;99889.94;4348503;32;33176;-86
2022/09/02 10:03:26;;;;;;;;;;;;;;;25.00;31.27;99890.12;4353827;32;32143;-86
2022/09/02 10:06:15;;;;;;;;;;;;;;;24.78;31.63;99895.06;4361896;32;33946;-86
2022/09/02 10:08:51;;;;;;;;;;;;;;;24.38;37.18;99891.97;4371067;32;34288;-87
2022/09/02 10:11:20;;;;;;;;;;;;;;;24.75;33.46;99895.34;4361543;32;33496;-86
2022/09/02 10:13:47;;;;;;;;;;;;;;;24.86;31.99;99896.09;4361188;32;33461;-86
2022/09/02 10:16:18;;;;;;;;;;;;;;;24.13;35.55;99905.16;4334631;32;33202;-86
2022/09/02 10:18:49;;;;;;;;;;;;;;;24.50;32.81;99896.16;4373872;32;35039;-87
2022/09/02 10:21:22;;;;;;;;;;;;;;;24.61;32.79;99898.59;4361650;32;33551;-86
2022/09/02 10:23:59;;;;;;;;;;;;;;;24.64;33.10;99898.31;4363598;32;32961;-86
2022/09/02 10:26:35;;;;;;;;;;;;;;;24.13;33.43;99905.16;4371786;32;33218;-87
2022/09/02 10:29:15;;;;;;;;;;;;;;;24.30;33.23;99891.84;4362348;32;34929;-86
2022/09/02 10:31:49;;;;;;;;;;;;;;;24.16;34.77;99901.31;4363645;32;34368;-86
2022/09/02 10:34:26;;;;;;;;;;;;;;;24.66;34.83;99901.69;4351561;32;32375;-87
2022/09/02 10:37:13;;;;;;;;;;;;;;;24.90;32.92;99897.50;4376436;32;33919;-86
2022/09/02 10:39:48;;;;;;;;;;;;;;;24.77;33.74;99912.22;4374172;32;32803;-87
2022/09/02 10:42:19;;;;;;;;;;;;;;;24.79;32.59;99895.91;4373574;32;33453;-86
2022/09/02 10:44:46;;;;;;;;;;;;;;;24.88;33.46;99896.81;4363978;32;32207;-86
2022/09/02 10:47:28;;;;;;;;;;;;;;;24.76;32.89;99891.63;4375484;32;33348;-87
2022/09/02 10:50:01;;;;;;;;;;;;;;;24.74;33.10;99899.06;4364526;32;33992;-87
2022/09/02 10:52:51;;;;;;;;;;;;;;;24.43;33.19;99900.44;4351567;32;33345;-86
2022/09/02 10:55:53;;;;;;;;;;;;;;;25.07;33.73;99893.03;4364308;32;33024;-86
2022/09/02 10:58:23;;;;;;;;;;;;;;;25.18;33.42;99893.69;4361352;32;33052;-86
2022/09/02 11:00:52;;;;;;;;;;;;;;;25.25;31.93;99892.03;4363968;32;33719;-87
2022/09/02 11:03:22;;;;;;;;;;;;;;;25.10;31.89;99900.88;4362752;32;34435;-86
2022/09/02 11:05:51;;;;;;;;;;;;;;;25.02;32.71;99907.06;4372481;32;32326;-87
2022/09/02 11:08:22;;;;;;;;;;;;;;;25.02;32.76;99901.66;4360083;32;33845;-86
2022/09/02 11:11:03;;;;;;;;;;;;;;;25.39;31.65;99901.41;4359975;32;35835;-87
2022/09/02 11:13:57;;;;;;;;;;;;;;;25.33;32.44;99893.94;4360164;32;33368;-86
2022/09/02 11:16:32;;;;;;;;;;;;;;;25.34;32.32;99902.91;4357956;32;32603;-87
2022/09/02 11:19:05;;;;;;;;;;;;;;;25.51;31.81;99902.00;4373316;32;32209;-87
2022/09/02 11:21:51;;;;;;;;;;;;;;;25.34;32.05;99895.63;4361178;32;34413;-87
2022/09/02 11:24:26;;;;;;;;;;;;;;;25.37;31.64;99889.06;4372567;32;32425;-86
2022/09/02 11:27:08;;;;;;;;;;;;;;;25.50;31.92;99878.69;4360569;32;33474;-86
2022/09/02 11:29:55;;;;;;;;;;;;;;;25.47;31.14;99879.84;4352947;32;34581;-86
2022/09/02 11:32:40;;;;;;;;;;;;;;;25.53;34.10;99873.78;4373008;32;32798;-86
2022/09/02 11:35:09;;;;;;;;;;;;;;;25.95;31.37;99874.84;4341039;32;34288;-87
2022/09/02 11:37:48;;;;;;;;;;;;;;;26.27;30.27;99874.94;4360591;32;33506;-86
2022/09/02 11:40:17;;;;;;;;;;;;;;;26.28;30.27;99873.06;4373056;32;34704;-87
2022/09/02 11:43:06;;;;;;;;;;;;;;;25.88;31.91;99865.69;4353936;32;33230;-86
2022/09/02 11:45:34;;;;;;;;;;;;;;;25.81;30.89;99870.06;4373117;32;31655;-87
2022/09/02 11:48:02;;;;;;;;;;;;;;;25.91;30.33;99863.50;4355474;32;34047;-86
2022/09/02 11:50:34;;;;;;;;;;;;;;;25.47;31.03;99862.78;4371771;32;33434;-87
2022/09/02 11:53:25;;;;;;;;;;;;;;;25.50;30.78;99863.31;4372883;32;33402;-88
2022/09/02 11:55:58;;;;;;;;;;;;;;;26.13;30.20;99855.78;4374692;32;34187;-86
2022/09/02 11:58:32;;;;;;;;;;;;;;;25.98;30.34;99851.00;4348231;32;32579;-88
2022/09/02 12:01:02;;;;;;;;;;;;;;;26.23;29.97;99853.75;4361295;32;33826;-87
2022/09/02 12:03:30;;;;;;;;;;;;;;;26.00;30.35;99846.28;4360148;32;31693;-87
2022/09/02 12:06:20;;;;;;;;;;;;;;;25.86;30.13;99856.87;4353592;32;35721;-87
2022/09/02 12:08:50;;;;;;;;;;;;;;;26.22;29.26;99852.94;4344630;32;32439;-88
2022/09/02 12:11:30;;;;;;;;;;;;;;;25.99;30.41;99846.44;4360276;32;33108;-87
2022/09/02 12:13:58;;;;;;;;;;;;;;;26.00;29.46;99845.44;4370987;32;34248;-87
2022/09/02 12:16:32;;;;;;;;;;;;;;;25.95;29.46;99855.91;4347451;32;32855;-87
2022/09/02 12:19:12;;;;;;;;;;;;;;;25.76;30.81;99855.16;4370871;32;32408;-84
2022/09/02 12:22:00;;;;;;;;;;;;;;;25.87;29.93;99845.03;4371971;32;34024;-87
2022/09/02 12:24:31;;;;;;;;;;;;;;;25.70;33.31;99841.41;4371608;32;35083;-86
2022/09/02 12:27:01;;;;;;;;;;;;;;;25.97;28.96;99843.03;4359173;32;32928;-87
2022/09/02 12:29:32;;;;;;;;;;;;;;;25.68;30.53;99844.25;4356905;32;31784;-87
2022/09/02 12:32:00;;;;;;;;;;;;;;;25.45;30.53;99848.59;4355911;32;33391;-88
2022/09/02 12:34:47;;;;;;;;;;;;;;;25.41;29.81;99847.22;4333146;32;33794;-87
2022/09/02 12:37:52;;;;;;;;;;;;;;;25.21;29.56;99842.03;4369821;32;33966;-87
2022/09/02 12:40:24;;;;;;;;;;;;;;;25.73;30.09;99841.06;4312806;33;33632;-87
2022/09/02 12:42:59;;;;;;;;;;;;;;;25.52;29.85;99841.50;4355398;32;33912;-87
2022/09/02 12:45:26;;;;;;;;;;;;;;;25.26;29.86;99839.69;4370696;32;32858;-87
2022/09/02 12:47:55;;;;;;;;;;;;;;;25.33;30.35;99839.03;4359340;32;32696;-87
2022/09/02 12:50:24;;;;;;;;;;;;;;;24.82;31.05;99836.16;4358407;32;32510;-87
2022/09/02 12:52:58;;;;;;;;;;;;;;;24.85;30.81;99835.00;4366981;32;33361;-96
2022/09/02 12:56:01;;;;;;;;;;;;;;;24.89;30.97;99830.97;4376723;32;34042;-96
2022/09/02 12:58:45;;;;;;;;;;;;;;;25.08;30.62;99841.63;4367251;32;32418;-95
2022/09/02 13:02:00;;;;;;;;;;;;;;;24.84;30.87;99828.75;4364002;32;31690;-96
2022/09/02 13:05:00;;;;;;;;;;;;;;;25.38;31.58;99834.00;4383383;32;32664;-95
2022/09/02 13:07:58;;;;;;;;;;;;;;;25.15;30.12;99826.44;4371153;32;33160;-95
2022/09/02 13:10:47;;;;;;;;;;;;;;;25.53;32.16;99819.69;4370103;32;33058;-95
2022/09/02 13:13:56;;;;;;;;;;;;;;;25.47;31.57;99816.81;4376843;32;32693;-95